Flight Track Log - Related Links

Times and Time Zones

All times are in EDT time to prevent confusion due to time zone crossing. See the ASQ4086 flight status page for this flight to view local times or setup timezone preferences in your user account.

Time Position Orientation Groundspeed Altitude Reporting Facility
EDT Latitude Longitude Course Direction KTS MPH feet Rate Location/Type
Sun 12:32:29 PM 35.2289 -80.9572 251° West 149 171 1,400  Level Atlanta Center
Sun 12:33:24 PM 35.2692 -80.9836 332° Northwest 199 229 2,800 1,552 Climbing Atlanta Center
Sun 12:34:25 PM 35.2878 -81.0617 286° West 285 328 4,400 1,670 Climbing Atlanta Center
Sun 12:35:00 PM 35.2667 -81.1551 270° West  Level FlightAware Approximate
Sun 12:35:19 PM 35.2794 -81.1486 263° West 289 333 6,000  Level Atlanta Center
Sun 12:36:00 PM 35.2215 -81.2361 199° South  Level FlightAware Approximate
Sun 12:36:21 PM 35.2461 -81.2389 246° West 303 349 8,200  Level Atlanta Center
Sun 12:37:00 PM 35.1281 -81.2721 192° South  Level FlightAware Approximate
Sun 12:37:21 PM 35.1781 -81.2692 200° South 273 314 10,000  Level Atlanta Center
Sun 12:38:00 PM 35.0661 -81.3439 251° West  Level FlightAware Approximate
Sun 12:38:21 PM 35.1014 -81.2944 195° South 268 308 10,900  Level Atlanta Center
Sun 12:39:21 PM 35.0575 -81.3847 239° Southwest 282 325 11,900 950 Climbing Atlanta Center
Sun 12:40:21 PM 35.0244 -81.5000 251° West 325 374 12,800 950 Climbing Atlanta Center
Sun 12:41:21 PM 34.9892 -81.6150 250° West 361 415 13,800 950 Climbing Atlanta Center
Sun 12:42:21 PM 34.9539 -81.7300 250° West 366 421 14,700 950 Climbing Atlanta Center
Sun 12:43:21 PM 34.9139 -81.8375 246° West 365 420 15,700 950 Climbing Atlanta Center
Sun 12:44:21 PM 34.8697 -81.9222 238° Southwest 350 403 16,600 900 Climbing Atlanta Center
Sun 12:45:21 PM 34.8147 -82.0097 233° Southwest 338 389 17,500 950 Climbing Atlanta Center
Sun 12:46:21 PM 34.7578 -82.1097 235° Southwest 338 389 18,500 1,050 Climbing Atlanta Center
Sun 12:47:21 PM 34.7053 -82.2069 237° Southwest 343 395 19,600 1,033 Climbing Atlanta Center
Sun 12:49:21 PM 34.5911 -82.4061 235° Southwest 361 415 21,600 1,000 Climbing Atlanta Center
Sun 12:50:21 PM 34.5339 -82.5056 235° Southwest 367 422 22,600 1,100 Climbing Atlanta Center
Sun 12:51:21 PM 34.4686 -82.6178 235° Southwest 372 428 23,800 1,100 Climbing Atlanta Center
Sun 12:52:21 PM 34.4133 -82.7194 237° Southwest 372 428 24,800 900 Climbing Atlanta Center
Sun 12:53:21 PM 34.3600 -82.8058 233° Southwest 366 421 25,600 900 Climbing Atlanta Center
Sun 12:54:21 PM 34.3044 -82.9022 235° Southwest 360 414 26,600 1,000 Climbing Atlanta Center
Sun 12:55:21 PM 34.2489 -82.9983 235° Southwest 360 414 27,600 1,000 Climbing Atlanta Center
Sun 12:56:21 PM 34.1933 -83.0894 234° Southwest 355 409 28,600 1,000 Climbing Atlanta Center
Sun 12:57:21 PM 34.1419 -83.1828 236° Southwest 349 402 29,600 1,050 Climbing Atlanta Center
Sun 12:58:21 PM 34.0861 -83.2789 235° Southwest 344 396 30,700 1,050 Climbing Atlanta Center
Sun 12:59:21 PM 34.0261 -83.3797 234° Southwest 344 396 31,700 1,000 Climbing Atlanta Center
Sun 01:00:21 PM 33.9744 -83.4678 235° Southwest 338 389 32,700 1,000 Climbing Atlanta Center
Sun 01:01:21 PM 33.9186 -83.5606 234° Southwest 338 389 33,700 650 Climbing Atlanta Center
Sun 01:02:21 PM 33.8647 -83.6536 235° Southwest 338 389 34,000 150 Climbing Atlanta Center
Sun 01:03:21 PM 33.8064 -83.7539 235° Southwest 349 402 34,000  Level Atlanta Center
Sun 01:04:21 PM 33.7439 -83.8539 233° Southwest 373 429 34,000  Level Atlanta Center
Sun 01:05:21 PM 33.6814 -83.9589 234° Southwest 390 449 34,000  Level Atlanta Center
Sun 01:06:21 PM 33.6253 -84.0514 234° Southwest 390 449 34,000  Level Atlanta Center
Sun 01:07:21 PM 33.5625 -84.1558 234° Southwest 395 455 34,000 300 Level Atlanta Center
Sun 01:08:21 PM 33.4997 -84.2581 234° Southwest 395 455 34,600 650 Climbing Atlanta Center
Sun 01:09:21 PM 33.4389 -84.3625 235° Southwest 389 448 35,300 650 Climbing Atlanta Center
Sun 01:10:21 PM 33.3697 -84.4717 233° Southwest 389 448 35,900 350 Climbing Atlanta Center
Sun 01:11:21 PM 33.3108 -84.5758 236° Southwest 383 441 36,000 50 Climbing Atlanta Center
Sun 01:12:21 PM 33.2478 -84.6772 233° Southwest 383 441 36,000  Level Atlanta Center
Sun 01:13:21 PM 33.1867 -84.7786 234° Southwest 377 434 36,000  Level Atlanta Center
Sun 01:14:21 PM 33.1256 -84.8797 234° Southwest 377 434 36,000  Level Atlanta Center
Sun 01:15:21 PM 33.0622 -84.9808 233° Southwest 382 440 36,000  Level Atlanta Center
Sun 01:16:21 PM 32.9989 -85.0817 233° Southwest 382 440 36,000  Level Atlanta Center
Sun 01:17:21 PM 32.9436 -85.1675 233° Southwest 382 440 36,000  Level Atlanta Center
Sun 01:18:21 PM 32.8822 -85.2681 234° Southwest 376 433 36,000  Level Atlanta Center
Sun 01:19:21 PM 32.8208 -85.3661 233° Southwest 376 433 36,000  Level Atlanta Center
Sun 01:20:21 PM 32.7592 -85.4642 233° Southwest 376 433 36,000  Level Atlanta Center
Sun 01:21:21 PM 32.6994 -85.5594 233° Southwest 376 433 36,000  Level Atlanta Center
Sun 01:22:21 PM 32.6397 -85.6594 235° Southwest 376 433 36,000  Level Atlanta Center
Sun 01:23:21 PM 32.5714 -85.7667 233° Southwest 376 433 36,000  Level Atlanta Center
Sun 01:24:21 PM 32.5053 -85.8664 232° Southwest 382 440 36,000  Level Atlanta Center
Sun 01:25:21 PM 32.4456 -85.9636 234° Southwest 382 440 36,000  Level Atlanta Center
Sun 01:26:21 PM 32.3875 -86.0583 234° Southwest 374 430 36,000  Level Atlanta Center
Sun 01:27:21 PM 32.3256 -86.1553 233° Southwest 374 430 36,000  Level Atlanta Center
Sun 01:28:21 PM 32.2694 -86.2472 234° Southwest 374 430 36,000  Level Atlanta Center
Sun 01:29:21 PM 32.2050 -86.3486 233° Southwest 379 436 36,000  Level Atlanta Center
Sun 01:30:21 PM 32.1492 -86.4306 231° Southwest 379 436 36,000  Level Atlanta Center
Sun 01:31:21 PM 32.0847 -86.5269 232° Southwest 379 436 36,000  Level Atlanta Center
Sun 01:32:21 PM 32.0181 -86.6181 229° Southwest 379 436 36,000  Level Atlanta Center
Sun 01:33:21 PM 31.9367 -86.7161 226° Southwest 379 436 36,000  Level Atlanta Center
Sun 01:34:21 PM 31.8722 -86.8097 231° Southwest 379 436 36,000  Level Atlanta Center
Sun 01:35:21 PM 31.8053 -86.9028 230° Southwest 384 442 36,000  Level Atlanta Center
Sun 01:36:22 PM 31.7406 -86.9936 230° Southwest 379 436 36,000  Level Atlanta Center
Sun 01:38:43 PM 31.5872 -87.1978 229° Southwest 373 429 36,000  Level Houston Center
Sun 01:39:45 PM 31.5181 -87.2908 229° Southwest 378 435 36,000  Level Houston Center
Sun 01:40:47 PM 31.4353 -87.4042 229° Southwest 381 438 36,000  Level Houston Center
Sun 01:41:50 PM 31.3678 -87.4981 230° Southwest 379 436 36,000  Level Houston Center
Sun 01:42:52 PM 31.2981 -87.5897 228° Southwest 379 436 36,000  Level Houston Center
Sun 01:43:54 PM 31.2308 -87.6831 230° Southwest 377 434 36,000  Level Houston Center
Sun 01:44:56 PM 31.1547 -87.7825 228° Southwest 377 434 36,000  Level Houston Center
Sun 01:45:58 PM 31.0872 -87.8764 230° Southwest 378 435 36,000  Level Houston Center
Sun 01:47:00 PM 31.0175 -87.9689 229° Southwest 379 436 36,000  Level Houston Center
Sun 01:48:02 PM 30.9472 -88.0614 228° Southwest 381 438 36,000  Level Houston Center
Sun 01:49:04 PM 30.8625 -88.1744 229° Southwest 385 443 36,000  Level Houston Center
Sun 01:50:06 PM 30.7936 -88.2672 229° Southwest 380 437 36,000  Level Houston Center
Sun 01:51:08 PM 30.7356 -88.3678 236° Southwest 375 432 36,000  Level Houston Center
Sun 01:52:10 PM 30.7025 -88.4797 251° West 367 422 36,000  Level Houston Center
Sun 01:53:12 PM 30.6689 -88.5914 251° West 369 425 36,000  Level Houston Center
Sun 01:54:15 PM 30.6361 -88.7042 251° West 368 423 36,000  Level Houston Center
Sun 01:55:17 PM 30.5956 -88.8394 251° West 369 425 36,000  Level Houston Center
Sun 01:56:19 PM 30.5619 -88.9525 251° West 372 428 36,000  Level Houston Center
Sun 01:57:21 PM 30.5303 -89.0664 252° West 372 428 36,000 -48 Level Houston Center
Sun 01:58:23 PM 30.4956 -89.1789 250° West 372 428 35,900  Descending Houston Center
Sun 01:59:25 PM 30.4619 -89.2931 251° West 373 429 36,000  Climbing Houston Center
Sun 02:00:27 PM 30.4272 -89.4058 250° West 372 428 35,900  Descending Houston Center
Sun 02:01:29 PM 30.3858 -89.5436 251° West 376 433 36,000 48 Climbing Houston Center
Sun 02:02:32 PM 30.3497 -89.6586 250° West 378 435 36,000  Level Houston Center
Sun 02:03:34 PM 30.3117 -89.7753 249° West 385 443 36,000  Level Houston Center
Sun 02:04:36 PM 30.2750 -89.9014 251° West 384 442 36,000  Level Houston Center
Sun 02:05:38 PM 30.2400 -90.0164 251° West 381 438 36,000  Level Houston Center
Sun 02:06:40 PM 30.2036 -90.1322 250° West 383 441 36,000  Level Houston Center
Sun 02:07:42 PM 30.1681 -90.2486 251° West 384 442 36,000  Level Houston Center
Sun 02:08:44 PM 30.1311 -90.3644 250° West 385 443 36,000  Level Houston Center
Sun 02:09:46 PM 30.0875 -90.5050 250° West 388 447 36,000  Level Houston Center
Sun 02:10:48 PM 30.0503 -90.6225 250° West 389 448 36,000  Level Houston Center
Sun 02:11:51 PM 30.0136 -90.7394 250° West 390 449 36,000  Level Houston Center
Sun 02:12:53 PM 29.9772 -90.8564 250° West 388 447 36,000  Level Houston Center
Sun 02:13:55 PM 29.9397 -90.9722 250° West 386 444 36,000  Level Houston Center
Sun 02:14:57 PM 29.9031 -91.0881 250° West 387 445 36,000  Level Houston Center
Sun 02:15:59 PM 29.8592 -91.2267 250° West 384 442 36,000  Level Houston Center
Sun 02:17:01 PM 29.8208 -91.3417 249° West 385 443 36,000  Level Houston Center
Sun 02:18:03 PM 29.7831 -91.4586 250° West 389 448 36,000  Level Houston Center
Sun 02:19:05 PM 29.7464 -91.5764 250° West 392 451 36,000  Level Houston Center
Sun 02:20:07 PM 29.7075 -91.6931 249° West 392 451 36,000  Level Houston Center
Sun 02:21:09 PM 29.6636 -91.8250 249° West 392 451 36,000  Level Houston Center
Sun 02:22:11 PM 29.6267 -91.9411 250° West 388 447 36,000  Level Houston Center
Sun 02:23:14 PM 29.5886 -92.0578 249° West 389 448 36,000  Level Houston Center
Sun 02:24:16 PM 29.5503 -92.1733 249° West 387 445 36,000  Level Houston Center
Sun 02:25:18 PM 29.5128 -92.2889 250° West 387 445 36,000  Level Houston Center
Sun 02:26:20 PM 29.4664 -92.4275 249° West 386 444 36,000  Level Houston Center
Sun 02:27:22 PM 29.4606 -92.5467 267° West 379 436 36,000  Level Houston Center
Sun 02:28:24 PM 29.4658 -92.6664 273° West 376 433 36,000  Level Houston Center
Sun 02:29:26 PM 29.4711 -92.7856 273° West 374 430 36,000 -290 Level Houston Center
Sun 02:30:28 PM 29.4775 -92.9053 274° West 375 432 35,400 -871 Descending Houston Center
Sun 02:31:30 PM 29.4828 -93.0269 273° West 380 437 34,200 -1,306 Descending Houston Center
Sun 02:32:32 PM 29.4878 -93.1675 272° West 369 425 32,700 -1,584 Descending Houston Center
Sun 02:33:35 PM 29.4942 -93.2919 273° West 385 443 30,900 -1,776 Descending Houston Center
Sun 02:34:37 PM 29.4992 -93.4203 273° West 398 458 29,000 -1,887 Descending Houston Center
Sun 02:35:39 PM 29.5033 -93.5511 272° West 407 468 27,000 -2,081 Descending Houston Center
Sun 02:36:41 PM 29.5083 -93.6831 273° West 412 474 24,700 -2,323 Descending Houston Center
Sun 02:37:43 PM 29.5128 -93.8103 272° West 402 463 22,200 -2,661 Descending Houston Center
Sun 02:38:45 PM 29.5197 -93.9542 273° West 379 436 19,200 -2,565 Descending Houston Center
Sun 02:39:47 PM 29.5228 -94.0706 272° West 368 423 16,900 -2,296 Descending Houston Center
Sun 02:40:06 PM 29.5253 -94.1083 274° West 364 419 16,100 -2,523 Descending Houston Center
Sun 02:41:15 PM 29.5283 -94.2425 272° West 358 412 13,200 -1,771 Descending Houston Center
Sun 02:41:51 PM 29.5317 -94.3017 274° West 355 409 13,000 -179 Descending Houston Center
Sun 02:42:22 PM 29.5372 -94.3544 277° West 308 354 13,000  Level Houston Center
Sun 02:42:54 PM 29.5542 -94.3947 296° West 315 362 13,000 -429 Level Houston Center
Sun 02:43:18 PM 29.5731 -94.4386 296° West 305 351 12,600 -871 Descending Houston Center
Sun 02:43:56 PM 29.5922 -94.4817 297° West 305 351 12,100 -984 Descending Houston Center
Sun 02:44:19 PM 29.6111 -94.5275 295° West 304 350 11,600 -968 Descending Houston Center
Sun 02:44:58 PM 29.6292 -94.5683 297° West 304 350 11,100 -885 Descending Houston Center
Sun 02:45:20 PM 29.6469 -94.6144 294° West 293 337 10,700 -677 Descending Houston Center
Sun 02:46:00 PM 29.6775 -94.6642 305° West 299 344 10,400 -387 Descending Houston Center
Sun 02:46:22 PM 29.7022 -94.6842 325° Northwest 306 352 10,300 -484 Descending Houston Center
Sun 02:47:02 PM 29.7433 -94.7169 325° Northwest 293 337 9,900 -984 Descending Houston Center
Sun 02:47:23 PM 29.7661 -94.7364 323° Northwest 253 291 9,300 -1,548 Descending Houston Center
Sun 02:48:04 PM 29.7983 -94.7608 327° Northwest 254 292 8,300 -1,672 Descending Houston Center
Sun 02:48:24 PM 29.8231 -94.7822 323° Northwest 248 285 7,600 -1,645 Descending Houston Center
Sun 02:49:06 PM 29.8506 -94.8114 317° Northwest 247 284 6,600 -1,548 Descending Houston Center
Sun 02:49:26 PM 29.8703 -94.8389 310° West 241 277 6,000 -1,161 Descending Houston Center
Sun 02:50:08 PM 29.8933 -94.8672 313° West 240 276 5,400 -1,377 Descending Houston Center
Sun 02:50:27 PM 29.9100 -94.9014 299° West 236 272 4,600 -1,355 Descending Houston Center
Sun 02:51:10 PM 29.9253 -94.9506 290° West 242 278 4,000 -590 Descending Houston Center
Sun 02:51:28 PM 29.9314 -94.9733 287° West 241 277 4,000  Level Houston Center
Sun 02:52:12 PM 29.9489 -95.0228 292° West 242 278 4,000  Level Houston Center
Sun 02:52:29 PM 29.9553 -95.0478 286° West 243 280 4,000  Level Houston Center
Sun 02:53:15 PM 29.9706 -95.0956 290° West 242 278 4,000 -194 Level Houston Center
Sun 02:53:31 PM 29.9792 -95.1219 291° West 247 284 3,800 -750 Descending Houston Center

Login

Don't have an account? Register now (free) for customized features, flight alerts, and more!